createdAt,value
2022-10-18T00:01:45.166Z,15.28
2022-10-18T00:04:13.483Z,15.27
2022-10-18T00:06:43.525Z,15.26
2022-10-18T00:09:12.264Z,15.24
2022-10-18T00:11:40.930Z,15.22
2022-10-18T00:14:09.263Z,15.17
2022-10-18T00:16:37.631Z,15.16
2022-10-18T00:19:06.049Z,15.13
2022-10-18T00:21:34.525Z,15.14
2022-10-18T00:24:02.982Z,15.13
2022-10-18T00:26:32.757Z,15.13
2022-10-18T00:29:05.510Z,15.13
2022-10-18T00:31:39.119Z,15.14
2022-10-18T00:34:16.049Z,15.14
2022-10-18T00:36:45.496Z,15.05
2022-10-18T00:39:20.665Z,15.05
2022-10-18T00:41:49.126Z,15.01
2022-10-18T00:44:17.444Z,15.01
2022-10-18T00:46:48.508Z,15.01
2022-10-18T00:49:52.858Z,15.05
2022-10-18T00:52:27.616Z,15.10
2022-10-18T00:54:58.006Z,15.15
2022-10-18T00:57:27.271Z,15.19
2022-10-18T00:59:55.749Z,15.23
2022-10-18T01:02:24.548Z,15.27
2022-10-18T01:04:52.936Z,15.30
2022-10-18T01:07:26.514Z,15.35
2022-10-18T01:10:05.048Z,15.36
2022-10-18T01:13:11.752Z,15.39
2022-10-18T01:16:18.329Z,15.39
2022-10-18T01:19:12.839Z,15.38
2022-10-18T01:22:29.091Z,15.37
2022-10-18T01:27:47.888Z,15.34
2022-10-18T01:30:21.867Z,15.33
2022-10-18T01:32:54.799Z,15.34
2022-10-18T01:35:36.229Z,15.34
2022-10-18T01:38:07.824Z,15.34
2022-10-18T01:40:38.174Z,15.34
2022-10-18T01:45:40.108Z,15.28
2022-10-18T01:48:08.514Z,15.28
2022-10-18T01:50:37.149Z,15.31
2022-10-18T01:53:05.474Z,15.32
2022-10-18T01:55:44.753Z,15.35
2022-10-18T01:58:32.266Z,15.37
2022-10-18T02:03:48.832Z,15.36
2022-10-18T02:06:33.324Z,15.40
2022-10-18T02:09:13.663Z,15.40
2022-10-18T02:11:43.940Z,15.41
2022-10-18T02:14:14.587Z,15.42
2022-10-18T02:16:51.837Z,15.42
2022-10-18T02:19:34.287Z,15.43
2022-10-18T02:22:02.823Z,15.41
2022-10-18T02:24:45.475Z,15.43
2022-10-18T02:27:14.103Z,15.40
2022-10-18T02:29:43.207Z,15.40
2022-10-18T02:32:35.883Z,15.41
2022-10-18T02:35:30.344Z,15.42
2022-10-18T02:38:01.080Z,15.40
2022-10-18T02:40:29.539Z,15.41
2022-10-18T02:43:00.322Z,15.43
2022-10-18T02:45:29.009Z,15.46
2022-10-18T02:47:57.338Z,15.44
2022-10-18T02:50:25.779Z,15.45
2022-10-18T02:52:54.108Z,15.45
2022-10-18T02:55:22.524Z,15.46
2022-10-18T02:57:50.872Z,15.47
2022-10-18T03:00:19.335Z,15.47
2022-10-18T03:05:16.317Z,15.49
2022-10-18T03:07:44.686Z,15.49
2022-10-18T03:10:13.079Z,15.51
2022-10-18T03:12:41.427Z,15.50
2022-10-18T03:15:09.847Z,15.52
2022-10-18T03:17:38.257Z,15.51
2022-10-18T03:20:07.014Z,15.53
2022-10-18T03:22:35.938Z,15.55
2022-10-18T03:25:04.311Z,15.57
2022-10-18T03:27:32.968Z,15.57
2022-10-18T03:30:01.585Z,15.57
2022-10-18T03:32:30.522Z,15.58
2022-10-18T03:34:58.966Z,15.56
2022-10-18T03:37:27.384Z,15.57
2022-10-18T03:39:55.767Z,15.58
2022-10-18T03:42:24.173Z,15.60
2022-10-18T03:44:52.526Z,15.61
2022-10-18T03:47:20.915Z,15.62
2022-10-18T03:49:52.007Z,15.64
2022-10-18T03:52:23.086Z,15.64
2022-10-18T03:54:51.488Z,15.65
2022-10-18T03:57:19.856Z,15.65
2022-10-18T03:59:48.798Z,15.67
2022-10-18T04:02:17.187Z,15.69
2022-10-18T04:04:45.630Z,15.71
2022-10-18T04:07:13.929Z,15.72
2022-10-18T04:09:42.304Z,15.74
2022-10-18T04:12:10.662Z,15.75
2022-10-18T04:14:39.054Z,15.76
2022-10-18T04:17:07.463Z,15.74
2022-10-18T04:19:35.778Z,15.73
2022-10-18T04:22:04.162Z,15.72
2022-10-18T04:24:32.520Z,15.72
2022-10-18T04:27:00.839Z,15.74
2022-10-18T04:29:29.214Z,15.77
2022-10-18T04:31:57.576Z,15.79
2022-10-18T04:34:25.964Z,15.80
2022-10-18T04:36:54.454Z,15.75
2022-10-18T04:39:23.240Z,15.74
2022-10-18T04:41:51.547Z,15.72
2022-10-18T04:44:19.915Z,15.74
2022-10-18T04:46:48.249Z,15.76
2022-10-18T04:49:16.683Z,15.78
2022-10-18T04:51:45.065Z,15.81
2022-10-18T04:54:13.502Z,15.84
2022-10-18T04:56:41.834Z,15.87
2022-10-18T04:59:10.156Z,15.89
2022-10-18T05:01:38.572Z,15.91
2022-10-18T05:04:06.903Z,15.93
2022-10-18T05:06:35.306Z,15.93
2022-10-18T05:09:03.650Z,15.90
2022-10-18T05:11:32.315Z,15.91
2022-10-18T05:14:00.656Z,15.93
2022-10-18T05:16:29.294Z,15.95
2022-10-18T05:18:57.717Z,15.96
2022-10-18T05:21:26.162Z,15.98
2022-10-18T05:23:57.294Z,16.01
2022-10-18T05:26:25.681Z,16.03
2022-10-18T05:28:54.156Z,16.03
2022-10-18T05:31:22.703Z,16.03
2022-10-18T05:33:51.054Z,16.03
2022-10-18T05:36:19.373Z,16.03
2022-10-18T05:38:48.433Z,16.00
2022-10-18T05:41:16.814Z,15.98
2022-10-18T05:43:45.132Z,15.97
2022-10-18T05:46:15.413Z,15.98
2022-10-18T05:48:45.473Z,16.00
2022-10-18T05:51:14.365Z,15.99
2022-10-18T05:53:42.833Z,15.99
2022-10-18T05:56:12.474Z,15.97
2022-10-18T05:58:41.595Z,15.94
2022-10-18T06:01:10.892Z,15.93
2022-10-18T06:03:39.422Z,15.93
2022-10-18T06:06:11.526Z,15.96
2022-10-18T06:08:41.367Z,15.97
2022-10-18T06:11:10.409Z,15.98
2022-10-18T06:13:47.273Z,16.01
2022-10-18T06:16:18.003Z,16.02
2022-10-18T06:18:50.472Z,16.08
2022-10-18T06:21:19.835Z,16.11
2022-10-18T06:23:58.856Z,16.16
2022-10-18T06:26:28.104Z,16.20
2022-10-18T06:28:56.664Z,16.32
2022-10-18T06:31:25.093Z,16.38
2022-10-18T06:33:53.500Z,16.39
2022-10-18T06:36:23.085Z,16.41
2022-10-18T06:38:51.854Z,16.41
2022-10-18T06:41:20.489Z,16.45
2022-10-18T06:43:53.318Z,16.47
2022-10-18T06:46:21.708Z,16.50
2022-10-18T06:48:50.005Z,16.53
2022-10-18T06:51:18.390Z,16.51
2022-10-18T06:53:59.066Z,16.54
2022-10-18T06:56:27.893Z,16.54
2022-10-18T06:58:56.243Z,16.52
2022-10-18T07:01:24.933Z,16.51
2022-10-18T07:03:54.977Z,16.53
2022-10-18T07:06:24.817Z,16.53
2022-10-18T07:08:54.220Z,16.53
2022-10-18T07:11:26.469Z,16.56
2022-10-18T07:14:03.075Z,16.56
2022-10-18T07:16:32.029Z,16.55
2022-10-18T07:19:00.333Z,16.55
2022-10-18T07:21:28.751Z,16.57
2022-10-18T07:23:57.813Z,16.57
2022-10-18T07:26:29.075Z,16.68
2022-10-18T07:29:02.472Z,16.68
2022-10-18T07:31:31.557Z,16.71
2022-10-18T07:33:59.866Z,16.70
2022-10-18T07:36:28.255Z,16.68
2022-10-18T07:38:56.804Z,16.64
2022-10-18T07:41:25.456Z,16.57
2022-10-18T07:43:54.292Z,16.50
2022-10-18T07:46:23.578Z,16.46
2022-10-18T07:48:52.422Z,16.39
2022-10-18T07:51:21.962Z,16.28
2022-10-18T07:53:50.426Z,16.14
2022-10-18T07:56:22.124Z,15.96
2022-10-18T07:58:54.259Z,15.78
2022-10-18T08:01:24.316Z,15.59
2022-10-18T08:03:53.280Z,15.48
2022-10-18T08:06:23.270Z,15.35
2022-10-18T08:08:52.327Z,15.29
2022-10-18T08:11:26.386Z,15.29
2022-10-18T08:13:55.622Z,15.19
2022-10-18T08:16:27.805Z,15.15
2022-10-18T08:18:58.174Z,15.10
2022-10-18T08:21:27.281Z,15.09
2022-10-18T08:23:55.677Z,15.08
2022-10-18T08:26:24.990Z,15.07
2022-10-18T08:28:54.269Z,15.09
2022-10-18T08:31:32.499Z,15.07
2022-10-18T08:34:01.005Z,15.05
2022-10-18T08:36:29.393Z,15.03
2022-10-18T08:38:57.692Z,15.03
2022-10-18T08:41:38.249Z,14.99
2022-10-18T08:44:27.047Z,14.97
2022-10-18T08:47:06.974Z,14.88
2022-10-18T08:49:46.866Z,14.85
2022-10-18T08:52:45.899Z,14.81
2022-10-18T08:56:14.509Z,14.82
2022-10-18T08:58:45.488Z,14.82
2022-10-18T09:01:38.164Z,14.79
2022-10-18T09:04:46.309Z,14.81
2022-10-18T09:08:09.764Z,14.85
2022-10-18T09:11:06.329Z,14.81
2022-10-18T09:14:17.424Z,14.83
2022-10-18T09:16:58.868Z,14.84
2022-10-18T09:19:38.606Z,14.85
2022-10-18T09:22:15.591Z,14.85
2022-10-18T09:25:19.782Z,14.93
2022-10-18T09:28:25.389Z,14.92
2022-10-18T09:31:07.575Z,14.92
2022-10-18T09:34:01.614Z,14.92
2022-10-18T09:36:35.768Z,14.92
2022-10-18T09:39:16.905Z,14.87
2022-10-18T09:42:17.637Z,14.94
2022-10-18T09:44:52.729Z,14.93
2022-10-18T09:47:26.363Z,14.96
2022-10-18T09:50:01.928Z,14.97
2022-10-18T09:52:41.123Z,14.96
2022-10-18T09:55:23.789Z,15.05
2022-10-18T09:58:00.651Z,15.10
2022-10-18T10:00:39.360Z,15.12
2022-10-18T10:03:14.874Z,15.16
2022-10-18T10:05:44.458Z,15.20
2022-10-18T10:08:13.067Z,15.20
2022-10-18T10:10:47.960Z,15.26
2022-10-18T10:13:22.908Z,15.28
2022-10-18T10:16:02.683Z,15.31
2022-10-18T10:18:38.266Z,15.32
2022-10-18T10:21:15.005Z,15.27
2022-10-18T10:23:54.757Z,15.31
2022-10-18T10:26:38.986Z,15.29
2022-10-18T10:30:07.292Z,15.33
2022-10-18T10:32:49.247Z,15.34
2022-10-18T10:38:30.003Z,15.47
2022-10-18T10:40:58.855Z,15.48
2022-10-18T10:43:40.066Z,15.50
2022-10-18T10:46:13.883Z,15.51
2022-10-18T10:49:21.654Z,15.53
2022-10-18T10:51:53.719Z,15.53
2022-10-18T10:54:35.617Z,15.59
2022-10-18T10:57:12.448Z,15.61
2022-10-18T10:59:50.111Z,15.63
2022-10-18T11:02:21.688Z,15.58
2022-10-18T11:04:56.023Z,15.59
2022-10-18T11:07:44.519Z,15.58
2022-10-18T11:10:13.473Z,15.63
2022-10-18T11:13:03.215Z,15.66
2022-10-18T11:15:46.418Z,15.66
2022-10-18T11:18:33.745Z,15.74
2022-10-18T11:21:18.922Z,15.72
2022-10-18T11:23:47.261Z,15.73
2022-10-18T11:26:24.448Z,15.75
2022-10-18T11:29:10.150Z,15.79
2022-10-18T11:31:58.965Z,15.77
2022-10-18T11:34:46.039Z,15.78
2022-10-18T11:37:51.999Z,15.84
2022-10-18T11:40:48.727Z,15.82
2022-10-18T11:44:02.750Z,15.79
2022-10-18T11:46:46.989Z,15.77
2022-10-18T11:49:50.202Z,15.76
2022-10-18T11:53:00.422Z,15.80
2022-10-18T11:55:31.951Z,15.74
2022-10-18T11:58:51.491Z,15.70
2022-10-18T12:02:12.293Z,15.66
2022-10-18T12:04:58.397Z,15.66
2022-10-18T12:07:42.008Z,15.66
2022-10-18T12:10:26.153Z,15.64
2022-10-18T12:13:09.206Z,15.61
2022-10-18T12:15:40.384Z,15.63
2022-10-18T12:18:17.183Z,15.60
2022-10-18T12:20:50.179Z,15.59
2022-10-18T12:23:47.851Z,15.58
2022-10-18T12:26:16.437Z,15.56
2022-10-18T12:28:44.746Z,15.58
2022-10-18T12:31:40.039Z,15.63
2022-10-18T12:34:35.995Z,15.64
2022-10-18T12:37:16.138Z,15.64
2022-10-18T12:42:50.613Z,15.67
2022-10-18T12:45:33.477Z,15.70
2022-10-18T12:48:06.920Z,15.75
2022-10-18T12:50:43.708Z,15.77
2022-10-18T12:53:19.477Z,15.81
2022-10-18T12:55:51.602Z,15.83
2022-10-18T12:58:33.110Z,15.89
2022-10-18T13:01:04.410Z,15.94
2022-10-18T13:03:58.714Z,15.98
2022-10-18T13:06:27.209Z,16.02
2022-10-18T13:09:19.715Z,16.06
2022-10-18T13:11:48.040Z,16.08
2022-10-18T13:15:05.635Z,16.11
2022-10-18T13:18:09.730Z,16.12
2022-10-18T13:24:48.800Z,16.12
2022-10-18T13:27:47.837Z,16.08
2022-10-18T13:30:40.372Z,16.08
2022-10-18T13:33:34.522Z,16.05
2022-10-18T13:36:22.888Z,16.05
2022-10-18T13:38:55.658Z,16.06
2022-10-18T13:41:34.559Z,16.09
2022-10-18T13:44:37.626Z,16.08
2022-10-18T13:47:06.821Z,16.10
2022-10-18T13:49:39.979Z,16.13
2022-10-18T13:52:26.577Z,16.09
2022-10-18T13:55:48.168Z,16.16
2022-10-18T13:58:59.175Z,16.18
2022-10-18T14:02:19.305Z,16.25
2022-10-18T14:05:16.527Z,16.17
2022-10-18T14:07:47.219Z,16.25
2022-10-18T14:11:01.885Z,16.28
2022-10-18T14:13:46.306Z,16.25
2022-10-18T14:16:29.420Z,16.25
2022-10-18T14:19:09.438Z,16.21
2022-10-18T14:21:41.203Z,16.27
2022-10-18T14:24:23.603Z,16.23
2022-10-18T14:27:16.563Z,16.23
2022-10-18T14:29:45.608Z,16.18
2022-10-18T14:32:29.430Z,16.20
2022-10-18T14:35:20.665Z,16.21
2022-10-18T14:37:50.032Z,16.23
2022-10-18T14:40:40.236Z,16.27
2022-10-18T14:43:15.257Z,16.27
2022-10-18T14:45:44.241Z,16.27
2022-10-18T14:48:22.841Z,16.22
2022-10-18T14:51:00.611Z,16.20
2022-10-18T14:53:36.002Z,16.15
2022-10-18T14:56:07.458Z,16.14
2022-10-18T14:58:38.458Z,16.16
2022-10-18T15:01:07.180Z,16.15
2022-10-18T15:03:44.069Z,16.17
2022-10-18T15:06:21.606Z,16.18
2022-10-18T15:08:56.872Z,16.16
2022-10-18T15:11:27.715Z,16.13
2022-10-18T15:14:06.943Z,16.05
2022-10-18T15:16:35.956Z,16.03
2022-10-18T15:19:28.555Z,16.06
2022-10-18T15:22:30.337Z,16.06
2022-10-18T15:25:14.579Z,16.05
2022-10-18T15:27:52.768Z,16.04
2022-10-18T15:30:42.487Z,16.04
2022-10-18T15:33:24.340Z,16.04
2022-10-18T15:35:53.664Z,16.02
2022-10-18T15:38:32.251Z,15.98
2022-10-18T15:41:00.695Z,15.91
2022-10-18T15:43:29.126Z,15.90
2022-10-18T15:46:06.469Z,15.92
2022-10-18T15:48:41.515Z,15.91
2022-10-18T15:51:45.127Z,15.91
2022-10-18T15:54:31.002Z,15.91
2022-10-18T15:56:59.484Z,15.89
2022-10-18T15:59:30.910Z,15.84
2022-10-18T16:01:59.326Z,15.81
2022-10-18T16:04:33.542Z,15.78
2022-10-18T16:07:02.182Z,15.72
2022-10-18T16:09:31.024Z,15.70
2022-10-18T16:11:59.690Z,15.68
2022-10-18T16:14:29.869Z,15.63
2022-10-18T16:17:02.556Z,15.57
2022-10-18T16:19:32.198Z,15.50
2022-10-18T16:22:05.972Z,15.45
2022-10-18T16:24:34.922Z,15.32
2022-10-18T16:27:03.420Z,15.29
2022-10-18T16:29:33.003Z,15.23
2022-10-18T16:32:01.534Z,15.19
2022-10-18T16:34:32.156Z,15.18
2022-10-18T16:37:00.925Z,15.13
2022-10-18T16:39:32.153Z,15.09
2022-10-18T16:42:00.452Z,15.07
2022-10-18T16:44:28.967Z,15.03
2022-10-18T16:46:57.420Z,15.03
2022-10-18T16:49:27.369Z,15.00
2022-10-18T16:51:56.110Z,14.98
2022-10-18T16:54:24.896Z,15.02
2022-10-18T16:56:53.233Z,15.03
2022-10-18T16:59:33.137Z,15.04
2022-10-18T17:02:05.662Z,15.03
2022-10-18T17:04:34.505Z,14.96
2022-10-18T17:07:03.005Z,14.92
2022-10-18T17:09:31.814Z,14.86
2022-10-18T17:12:00.254Z,14.80
2022-10-18T17:14:28.844Z,14.78
2022-10-18T17:16:57.558Z,14.78
2022-10-18T17:19:25.973Z,14.76
2022-10-18T17:21:56.796Z,14.74
2022-10-18T17:24:27.380Z,14.74
2022-10-18T17:26:55.735Z,14.73
2022-10-18T17:29:24.089Z,14.72
2022-10-18T17:31:52.450Z,14.67
2022-10-18T17:34:21.520Z,14.68
2022-10-18T17:36:50.084Z,14.70
2022-10-18T17:39:18.541Z,14.74
2022-10-18T17:41:46.991Z,14.76
2022-10-18T17:44:15.419Z,14.79
2022-10-18T17:46:43.977Z,14.81
2022-10-18T17:49:14.231Z,14.85
2022-10-18T17:51:43.020Z,14.89
2022-10-18T17:54:11.474Z,14.88
2022-10-18T17:56:41.375Z,14.89
2022-10-18T17:59:09.866Z,14.86
2022-10-18T18:01:38.385Z,14.85
2022-10-18T18:04:06.587Z,14.82
2022-10-18T18:06:39.445Z,14.82
2022-10-18T18:09:11.937Z,14.83
2022-10-18T18:11:43.534Z,14.85
2022-10-18T18:14:12.993Z,14.86
2022-10-18T18:16:46.190Z,14.84
2022-10-18T18:19:15.582Z,14.82
2022-10-18T18:21:44.339Z,14.83
2022-10-18T18:24:13.978Z,14.82
2022-10-18T18:26:43.342Z,14.83
2022-10-18T18:29:14.155Z,14.83
2022-10-18T18:31:43.783Z,14.82
2022-10-18T18:34:12.787Z,14.81
2022-10-18T18:36:41.256Z,14.77
2022-10-18T18:39:10.029Z,14.73
2022-10-18T18:41:38.579Z,14.69
2022-10-18T18:44:07.978Z,14.68
2022-10-18T18:46:38.882Z,14.60
2022-10-18T18:49:08.481Z,14.56
2022-10-18T18:51:39.712Z,14.53
2022-10-18T18:54:10.292Z,14.52
2022-10-18T18:56:39.169Z,14.45
2022-10-18T18:59:08.016Z,14.44
2022-10-18T19:01:39.457Z,14.42
2022-10-18T19:04:09.338Z,14.40
2022-10-18T19:06:43.919Z,14.40
2022-10-18T19:09:22.117Z,14.36
2022-10-18T19:11:53.442Z,14.32
2022-10-18T19:16:55.461Z,14.24
2022-10-18T19:19:28.499Z,14.23
2022-10-18T19:22:03.618Z,14.22
2022-10-18T19:24:32.532Z,14.21
2022-10-18T19:27:08.709Z,14.20
2022-10-18T19:29:40.034Z,14.18
2022-10-18T19:32:12.297Z,14.13
2022-10-18T19:34:41.492Z,14.13
2022-10-18T19:37:10.553Z,14.11
2022-10-18T19:39:39.550Z,14.08
2022-10-18T19:42:14.696Z,14.08
2022-10-18T19:44:45.649Z,14.08
2022-10-18T19:47:15.674Z,14.05
2022-10-18T19:49:44.254Z,14.03
2022-10-18T19:52:13.211Z,14.01
2022-10-18T19:54:41.784Z,13.98
2022-10-18T19:57:10.172Z,13.94
2022-10-18T20:02:16.061Z,13.89
2022-10-18T20:04:44.405Z,13.87
2022-10-18T20:07:12.890Z,13.84
2022-10-18T20:09:41.257Z,13.80
2022-10-18T20:12:09.813Z,13.78
2022-10-18T20:14:38.210Z,13.74
2022-10-18T20:17:06.814Z,13.73
2022-10-18T20:19:35.182Z,13.69
2022-10-18T20:22:03.681Z,13.67
2022-10-18T20:24:32.039Z,13.60
2022-10-18T20:27:00.767Z,13.56
2022-10-18T20:29:30.271Z,13.53
2022-10-18T20:31:58.670Z,13.52
2022-10-18T20:34:28.527Z,13.48
2022-10-18T20:36:57.270Z,13.44
2022-10-18T20:39:25.736Z,13.41
2022-10-18T20:41:54.323Z,13.39
2022-10-18T20:44:22.827Z,13.37
2022-10-18T20:46:51.139Z,13.35
2022-10-18T20:52:06.601Z,13.27
2022-10-18T20:54:35.141Z,13.22
2022-10-18T20:57:03.540Z,13.20
2022-10-18T20:59:32.079Z,13.18
2022-10-18T21:02:00.476Z,13.18
2022-10-18T21:04:29.021Z,13.13
2022-10-18T21:06:57.354Z,13.02
2022-10-18T21:09:25.729Z,13.04
2022-10-18T21:11:54.677Z,13.00
2022-10-18T21:14:24.856Z,12.98
2022-10-18T21:16:53.810Z,12.94
2022-10-18T21:19:25.936Z,12.92
2022-10-18T21:21:57.129Z,12.92
2022-10-18T21:24:26.704Z,12.90
2022-10-18T21:26:55.596Z,12.88
2022-10-18T21:29:24.879Z,12.86
2022-10-18T21:31:59.291Z,12.83
2022-10-18T21:34:34.567Z,12.84
2022-10-18T21:37:02.830Z,12.88
2022-10-18T21:39:31.285Z,12.88
2022-10-18T21:41:59.647Z,12.89
2022-10-18T21:44:28.153Z,12.88
2022-10-18T21:46:56.944Z,12.87
2022-10-18T21:49:26.303Z,12.79
2022-10-18T21:51:54.615Z,12.82
2022-10-18T21:54:23.161Z,12.79
2022-10-18T21:56:52.067Z,12.77
2022-10-18T21:59:20.377Z,12.73
2022-10-18T22:01:48.642Z,12.70
2022-10-18T22:04:23.653Z,12.65
2022-10-18T22:06:52.449Z,12.58
2022-10-18T22:09:21.388Z,12.54
2022-10-18T22:11:53.688Z,12.50
2022-10-18T22:14:23.548Z,12.48
2022-10-18T22:16:51.973Z,12.45
2022-10-18T22:19:20.550Z,12.42
2022-10-18T22:21:49.148Z,12.34
2022-10-18T22:24:17.732Z,12.33
2022-10-18T22:26:47.372Z,12.29
2022-10-18T22:29:21.651Z,12.27
2022-10-18T22:31:53.499Z,12.27
2022-10-18T22:34:27.756Z,12.25
2022-10-18T22:36:56.314Z,12.21
2022-10-18T22:39:24.606Z,12.18
2022-10-18T22:41:55.922Z,12.13
2022-10-18T22:44:24.724Z,12.11
2022-10-18T22:46:53.257Z,12.01
2022-10-18T22:49:21.592Z,11.99
2022-10-18T22:51:50.014Z,11.92
2022-10-18T22:54:18.512Z,11.89
2022-10-18T22:56:46.899Z,11.84
2022-10-18T22:59:15.220Z,11.82
2022-10-18T23:01:43.496Z,11.81
2022-10-18T23:04:12.158Z,11.75
2022-10-18T23:06:41.379Z,11.72
2022-10-18T23:09:12.238Z,11.67
2022-10-18T23:11:40.609Z,11.58
2022-10-18T23:14:08.957Z,11.53
2022-10-18T23:16:37.806Z,11.50
2022-10-18T23:19:06.488Z,11.42
2022-10-18T23:21:35.162Z,11.37
2022-10-18T23:24:04.622Z,11.37
2022-10-18T23:26:34.657Z,11.37
2022-10-18T23:29:03.083Z,11.33
2022-10-18T23:31:33.946Z,11.34
2022-10-18T23:34:05.520Z,11.24
2022-10-18T23:36:35.627Z,11.17
2022-10-18T23:39:06.476Z,11.10
2022-10-18T23:41:34.871Z,11.07
2022-10-18T23:44:03.726Z,11.03
2022-10-18T23:46:32.056Z,10.94
2022-10-18T23:49:00.673Z,10.86
2022-10-18T23:51:28.673Z,10.82
2022-10-18T23:53:56.997Z,10.82
2022-10-18T23:56:25.351Z,10.84
2022-10-18T23:58:53.700Z,10.79
